Time;durP1;ratioP1;P1;durP2;ratioP2;P2;SDS_P1;SDS_P2;PMS_P1;PMS_P2;Temp;Humidity;BMP_temperature;BMP_pressure;BME280_temperature;BME280_humidity;BME280_pressure;Samples;Min_cycle;Max_cycle;Signal;HPM_P1;HPM_P2
2024/03/14 00:01:52;;;;;;;227.97;75.37;;;;;5.80;96880.00;;;;5017418;28;20947;-67
2024/03/14 00:04:41;;;;;;;236.80;79.60;;;;;6.10;96878.00;;;;5009961;28;20427;-68
2024/03/14 00:07:31;;;;;;;239.20;77.93;;;;;6.00;96876.00;;;;5009800;28;20444;-68
2024/03/14 00:10:20;;;;;;;246.07;82.47;;;;;5.60;96878.00;;;;5037730;28;20444;-68
2024/03/14 00:13:09;;;;;;;245.13;82.63;;;;;5.60;96870.00;;;;5010442;28;20675;-68
2024/03/14 00:15:58;;;;;;;230.43;77.33;;;;;5.60;96867.00;;;;5005895;28;21141;-68
2024/03/14 00:18:48;;;;;;;243.33;82.27;;;;;5.50;96853.00;;;;5011609;28;20443;-68
2024/03/14 00:21:41;;;;;;;238.17;79.67;;;;;5.70;96861.00;;;;5005620;28;20453;-68
2024/03/14 00:24:31;;;;;;;237.70;78.03;;;;;5.50;96861.00;;;;5007199;28;20467;-69
2024/03/14 00:27:20;;;;;;;243.33;81.97;;;;;5.30;96844.00;;;;5010394;28;20467;-68
2024/03/14 00:30:09;;;;;;;242.73;82.80;;;;;5.30;96846.00;;;;5014526;28;20998;-68
2024/03/14 00:32:59;;;;;;;230.60;76.63;;;;;5.50;96847.00;;;;5004855;28;20422;-68
2024/03/14 00:35:49;;;;;;;228.17;76.80;;;;;5.20;96850.00;;;;5004075;28;20420;-68
2024/03/14 00:38:39;;;;;;;219.67;76.87;;;;;5.20;96851.00;;;;5006929;28;20526;-68
2024/03/14 00:41:28;;;;;;;226.43;77.67;;;;;5.40;96848.00;;;;5032752;28;20474;-68
2024/03/14 00:44:18;;;;;;;224.43;78.77;;;;;5.40;96829.00;;;;5024629;28;20435;-68
2024/03/14 00:47:07;;;;;;;225.13;77.60;;;;;5.20;96832.00;;;;5010242;28;21000;-69
2024/03/14 00:49:57;;;;;;;219.27;75.40;;;;;5.40;96833.00;;;;5018514;28;20416;-68
2024/03/14 00:52:46;;;;;;;223.97;76.97;;;;;5.50;96831.00;;;;5009474;28;20816;-69
2024/03/14 00:55:36;;;;;;;238.03;83.53;;;;;6.00;96826.00;;;;5006251;28;20429;-68
2024/03/14 00:58:25;;;;;;;225.87;76.97;;;;;5.70;96823.00;;;;5021116;28;20845;-68
2024/03/14 01:01:14;;;;;;;236.17;83.10;;;;;5.10;96816.00;;;;5014629;28;21022;-69
2024/03/14 01:04:05;;;;;;;226.93;77.60;;;;;4.70;96809.00;;;;5006127;28;20509;-69
2024/03/14 01:06:54;;;;;;;225.20;76.67;;;;;5.60;96816.00;;;;5019046;28;20798;-69
2024/03/14 01:09:43;;;;;;;225.77;78.30;;;;;5.70;96809.00;;;;5029507;28;20427;-69
2024/03/14 01:12:32;;;;;;;224.37;77.77;;;;;5.80;96804.00;;;;5007069;28;20916;-69
2024/03/14 01:15:22;;;;;;;241.43;83.63;;;;;5.50;96806.00;;;;5013786;28;20432;-68
2024/03/14 01:18:11;;;;;;;230.93;80.27;;;;;5.40;96798.00;;;;5012054;28;20451;-68
2024/03/14 01:21:01;;;;;;;221.10;74.40;;;;;5.30;96789.00;;;;5021256;28;20467;-67
2024/03/14 01:23:50;;;;;;;218.30;75.50;;;;;5.60;96794.00;;;;5007587;28;20429;-67
2024/03/14 01:26:40;;;;;;;227.43;79.30;;;;;5.10;96786.00;;;;5007591;28;20431;-68
2024/03/14 01:29:29;;;;;;;221.57;77.33;;;;;5.60;96791.00;;;;5008918;28;20425;-68
2024/03/14 01:32:19;;;;;;;237.70;82.30;;;;;5.90;96790.00;;;;5011826;28;21190;-68
2024/03/14 01:35:08;;;;;;;227.17;79.03;;;;;5.90;96792.00;;;;5024917;28;20427;-68
2024/03/14 01:37:59;;;;;;;226.63;77.27;;;;;5.20;96797.00;;;;5005514;28;20475;-68
2024/03/14 01:40:48;;;;;;;232.83;82.27;;;;;4.90;96787.00;;;;5019824;28;20451;-69
2024/03/14 01:43:38;;;;;;;221.87;75.70;;;;;4.50;96780.00;;;;5004514;28;20421;-68
2024/03/14 01:46:30;;;;;;;212.80;73.87;;;;;4.60;96773.00;;;;5012673;28;20424;-68
2024/03/14 01:49:19;;;;;;;226.60;79.20;;;;;5.40;96778.00;;;;5016165;28;20436;-68
2024/03/14 01:52:09;;;;;;;232.93;80.47;;;;;5.60;96772.00;;;;5008547;28;20431;-68
2024/03/14 01:54:58;;;;;;;222.60;75.63;;;;;5.50;96777.00;;;;5010764;28;20430;-68
2024/03/14 01:57:47;;;;;;;216.97;72.83;;;;;5.10;96774.00;;;;5011971;28;20451;-68
2024/03/14 02:00:38;;;;;;;231.63;79.73;;;;;4.80;96780.00;;;;5009687;28;20429;-67
2024/03/14 02:03:27;;;;;;;215.30;71.90;;;;;5.30;96772.00;;;;5011571;28;20514;-67
2024/03/14 02:06:18;;;;;;;237.63;81.50;;;;;5.40;96775.00;;;;5019235;28;20431;-67
2024/03/14 02:09:07;;;;;;;232.00;79.70;;;;;4.90;96777.00;;;;5022992;28;20419;-68
2024/03/14 02:11:57;;;;;;;230.90;76.83;;;;;4.90;96762.00;;;;5018260;28;20424;-67
2024/03/14 02:14:48;;;;;;;227.23;77.23;;;;;4.90;96775.00;;;;5014586;28;20412;-68
2024/03/14 02:17:37;;;;;;;232.33;77.13;;;;;4.90;96770.00;;;;5015645;28;20957;-68
2024/03/14 02:20:26;;;;;;;234.17;80.40;;;;;4.40;96767.00;;;;5028566;28;20412;-68
2024/03/14 02:23:15;;;;;;;227.03;77.10;;;;;3.60;96758.00;;;;5034425;28;21006;-69
2024/03/14 02:26:06;;;;;;;226.47;76.70;;;;;3.60;96754.00;;;;5017511;28;20427;-67
2024/03/14 02:28:55;;;;;;;222.57;75.00;;;;;4.40;96759.00;;;;5007885;28;20443;-68
2024/03/14 02:31:45;;;;;;;214.37;70.90;;;;;4.00;96761.00;;;;5005551;28;20474;-67
2024/03/14 02:34:34;;;;;;;226.10;76.70;;;;;3.90;96762.00;;;;5027101;28;20430;-66
2024/03/14 02:37:23;;;;;;;222.07;75.23;;;;;4.30;96768.00;;;;5009935;28;20451;-68
2024/03/14 02:40:12;;;;;;;233.53;78.43;;;;;4.30;96759.00;;;;5013907;28;20449;-68
2024/03/14 02:43:01;;;;;;;222.63;74.03;;;;;4.30;96752.00;;;;5006792;28;20491;-67
2024/03/14 02:45:51;;;;;;;223.40;75.57;;;;;4.60;96767.00;;;;5011610;28;20450;-68
2024/03/14 02:48:40;;;;;;;221.00;72.90;;;;;4.80;96768.00;;;;5012869;28;20440;-68
2024/03/14 02:51:29;;;;;;;226.43;73.60;;;;;4.90;96772.00;;;;5028004;28;20440;-66
2024/03/14 02:54:19;;;;;;;240.97;80.87;;;;;4.80;96767.00;;;;5034296;28;20433;-68
2024/03/14 02:57:11;;;;;;;244.53;81.07;;;;;5.10;96770.00;;;;5012335;28;20912;-68
2024/03/14 03:00:01;;;;;;;231.63;77.53;;;;;5.50;96771.00;;;;5006847;28;20436;-68
2024/03/14 03:02:52;;;;;;;233.77;77.00;;;;;5.70;96774.00;;;;5004684;28;20525;-68
2024/03/14 03:05:41;;;;;;;243.47;81.90;;;;;5.70;96775.00;;;;5004778;28;20460;-68
2024/03/14 03:08:31;;;;;;;235.27;78.80;;;;;5.00;96760.00;;;;5034475;28;20456;-68
2024/03/14 03:11:20;;;;;;;243.73;80.87;;;;;5.10;96747.00;;;;5011064;28;20427;-68
2024/03/14 03:14:09;;;;;;;235.97;78.57;;;;;5.40;96754.00;;;;5010174;28;20420;-68
2024/03/14 03:16:59;;;;;;;239.93;78.97;;;;;5.30;96756.00;;;;5006825;28;20435;-67
2024/03/14 03:19:49;;;;;;;239.33;77.87;;;;;4.70;96741.00;;;;5009926;28;20420;-68
2024/03/14 03:25:45;;;;;;;239.37;80.67;;;;;4.60;96735.00;;;;5013892;28;20424;-68
2024/03/14 03:28:35;;;;;;;229.73;75.20;;;;;4.60;96736.00;;;;5037036;28;20458;-68
2024/03/14 03:31:23;;;;;;;230.47;76.80;;;;;4.20;96746.00;;;;5031341;28;20432;-68
2024/03/14 03:34:13;;;;;;;233.00;77.70;;;;;4.00;96732.00;;;;5031062;28;20971;-68
2024/03/14 03:37:01;;;;;;;221.73;73.10;;;;;3.10;96731.00;;;;5019155;28;20447;-69
2024/03/14 03:39:51;;;;;;;222.87;73.60;;;;;3.90;96739.00;;;;5010370;28;20431;-69
2024/03/14 03:42:39;;;;;;;221.13;72.17;;;;;4.30;96736.00;;;;5006370;28;20477;-68
2024/03/14 03:45:28;;;;;;;229.83;76.37;;;;;4.60;96734.00;;;;5022542;28;20436;-67
2024/03/14 03:48:17;;;;;;;231.60;75.77;;;;;4.90;96754.00;;;;5033759;28;20440;-69
2024/03/14 03:51:06;;;;;;;219.23;71.40;;;;;4.40;96755.00;;;;5016112;28;20439;-68
2024/03/14 03:53:54;;;;;;;227.93;74.40;;;;;4.20;96744.00;;;;5016766;28;20454;-67
2024/03/14 03:56:43;;;;;;;227.47;76.47;;;;;4.10;96742.00;;;;5000507;28;20499;-66
2024/03/14 03:59:32;;;;;;;228.43;73.80;;;;;4.80;96754.00;;;;5028411;28;20417;-68
2024/03/14 04:02:22;;;;;;;233.93;77.23;;;;;4.60;96748.00;;;;5030750;28;20484;-67
2024/03/14 04:05:13;;;;;;;240.93;78.63;;;;;4.20;96752.00;;;;4996402;28;20444;-68
2024/03/14 04:08:02;;;;;;;236.07;74.57;;;;;4.40;96749.00;;;;5001252;28;20845;-68
2024/03/14 04:10:50;;;;;;;239.60;76.97;;;;;5.00;96750.00;;;;5024932;28;20446;-67
2024/03/14 04:13:39;;;;;;;235.13;76.20;;;;;4.50;96741.00;;;;5031775;28;20431;-69
2024/03/14 04:16:29;;;;;;;239.27;77.00;;;;;4.30;96744.00;;;;5008249;28;20456;-67
2024/03/14 04:19:18;;;;;;;244.27;81.27;;;;;3.90;96746.00;;;;5008369;28;20439;-69
2024/03/14 04:22:07;;;;;;;232.70;75.13;;;;;3.10;96753.00;;;;5019307;28;20462;-69
2024/03/14 04:24:57;;;;;;;232.53;74.73;;;;;3.10;96750.00;;;;5004334;28;20933;-69
2024/03/14 04:27:46;;;;;;;229.50;73.80;;;;;3.70;96750.00;;;;5022100;28;20971;-69
2024/03/14 04:30:35;;;;;;;241.87;78.80;;;;;4.00;96755.00;;;;5006426;28;20429;-69
2024/03/14 04:33:24;;;;;;;240.17;77.07;;;;;4.60;96759.00;;;;5009063;28;20474;-69
2024/03/14 04:36:16;;;;;;;239.70;75.60;;;;;4.70;96768.00;;;;5012304;28;20528;-69
2024/03/14 04:39:08;;;;;;;235.23;74.13;;;;;4.60;96758.00;;;;5003114;28;20527;-69
2024/03/14 04:41:57;;;;;;;242.70;76.90;;;;;4.50;96752.00;;;;5005127;28;20500;-69
2024/03/14 04:44:47;;;;;;;238.60;74.73;;;;;4.40;96761.00;;;;5006943;28;20509;-69
2024/03/14 04:47:36;;;;;;;231.63;69.93;;;;;4.50;96765.00;;;;5033654;28;20484;-69
2024/03/14 04:50:25;;;;;;;247.43;76.80;;;;;4.80;96769.00;;;;5005703;28;20828;-69
2024/03/14 04:53:16;;;;;;;258.40;82.57;;;;;5.00;96764.00;;;;5044333;23;21021;-84
2024/03/14 04:56:05;;;;;;;246.10;74.17;;;;;5.10;96767.00;;;;5026544;28;20666;-86
2024/03/14 04:58:54;;;;;;;259.67;80.63;;;;;4.20;96768.00;;;;5002615;28;20425;-84
2024/03/14 05:01:43;;;;;;;249.47;76.80;;;;;3.40;96761.00;;;;5003917;28;20435;-83
2024/03/14 05:04:33;;;;;;;243.47;76.03;;;;;3.90;96756.00;;;;4990147;28;20468;-83
2024/03/14 05:07:25;;;;;;;254.03;79.20;;;;;4.40;96764.00;;;;5006862;28;20460;-83
2024/03/14 05:10:15;;;;;;;256.33;81.13;;;;;4.20;96765.00;;;;5010251;28;20442;-85
2024/03/14 05:13:04;;;;;;;239.60;74.80;;;;;3.90;96759.00;;;;5004445;28;20429;-85
2024/03/14 05:15:54;;;;;;;233.07;70.67;;;;;3.20;96762.00;;;;5001115;28;20423;-83
2024/03/14 05:18:44;;;;;;;241.57;74.90;;;;;3.80;96759.00;;;;4996771;28;20432;-83
2024/03/14 05:21:33;;;;;;;246.83;76.50;;;;;3.70;96761.00;;;;5006892;28;20941;-82
2024/03/14 05:24:24;;;;;;;241.93;76.30;;;;;4.30;96769.00;;;;5006968;28;20508;-82
2024/03/14 05:27:13;;;;;;;235.27;76.23;;;;;4.30;96761.00;;;;4987862;28;20461;-84
2024/03/14 05:30:02;;;;;;;234.20;76.70;;;;;4.20;96771.00;;;;4988294;28;20443;-84
2024/03/14 05:32:52;;;;;;;229.87;73.63;;;;;4.20;96766.00;;;;4999719;28;20490;-84
2024/03/14 05:35:41;;;;;;;241.40;78.77;;;;;4.50;96767.00;;;;4996401;28;20500;-83
2024/03/14 05:38:30;;;;;;;236.97;76.13;;;;;5.00;96774.00;;;;4985013;28;20439;-83
2024/03/14 05:41:20;;;;;;;248.07;80.77;;;;;5.10;96783.00;;;;4986282;28;20443;-82
2024/03/14 05:44:09;;;;;;;248.50;79.27;;;;;5.20;96775.00;;;;4998180;28;20497;-83
2024/03/14 05:46:58;;;;;;;250.00;78.20;;;;;5.10;96773.00;;;;4991037;28;20459;-83
2024/03/14 05:49:47;;;;;;;248.73;78.87;;;;;5.20;96773.00;;;;5015555;28;20447;-83
2024/03/14 05:52:36;;;;;;;252.20;78.97;;;;;5.30;96778.00;;;;5011239;28;20443;-82
2024/03/14 05:55:26;;;;;;;266.07;86.17;;;;;5.50;96778.00;;;;5006922;28;20433;-83
2024/03/14 05:58:15;;;;;;;268.97;84.40;;;;;5.50;96781.00;;;;4995946;28;20956;-83
2024/03/14 06:01:06;;;;;;;256.53;77.60;;;;;5.40;96771.00;;;;5000301;28;21156;-83
2024/03/14 06:03:56;;;;;;;260.53;80.20;;;;;5.60;96780.00;;;;4997600;28;20503;-84
2024/03/14 06:06:45;;;;;;;259.70;80.13;;;;;5.90;96780.00;;;;4997265;28;20444;-83
2024/03/14 06:09:41;;;;;;;257.47;77.77;;;;;5.90;96780.00;;;;5011020;28;20439;-83
2024/03/14 06:12:30;;;;;;;264.83;80.70;;;;;6.00;96784.00;;;;5001784;28;20817;-83
2024/03/14 06:15:20;;;;;;;282.67;88.13;;;;;5.60;96786.00;;;;5003102;28;20435;-83
2024/03/14 06:18:10;;;;;;;267.67;84.07;;;;;5.60;96780.00;;;;5008149;28;20471;-83
2024/03/14 06:20:59;;;;;;;270.47;88.77;;;;;5.50;96783.00;;;;4990590;28;20436;-83
2024/03/14 06:23:50;;;;;;;264.43;81.73;;;;;5.60;96788.00;;;;4989989;28;20473;-83
2024/03/14 06:26:40;;;;;;;276.33;84.80;;;;;5.80;96789.00;;;;4990857;28;20445;-84
2024/03/14 06:29:29;;;;;;;274.67;84.37;;;;;5.70;96793.00;;;;4997852;28;20447;-84
2024/03/14 06:32:19;;;;;;;269.83;82.20;;;;;6.10;96788.00;;;;5007958;28;20431;-83
2024/03/14 06:35:08;;;;;;;273.70;82.77;;;;;6.50;96791.00;;;;4982758;28;20456;-83
2024/03/14 06:37:59;;;;;;;270.27;80.57;;;;;6.80;96789.00;;;;5002250;28;20459;-83
2024/03/14 06:40:50;;;;;;;276.43;81.40;;;;;6.90;96797.00;;;;4983036;28;20441;-82
2024/03/14 06:43:42;;;;;;;279.77;82.83;;;;;6.70;96789.00;;;;4991584;28;20479;-83
2024/03/14 06:46:31;;;;;;;275.67;81.63;;;;;6.20;96790.00;;;;4998659;28;20973;-84
2024/03/14 06:49:22;;;;;;;290.43;92.13;;;;;5.90;96788.00;;;;5001226;28;20867;-84
2024/03/14 06:52:12;;;;;;;283.90;86.87;;;;;6.10;96788.00;;;;4996141;28;20472;-84
2024/03/14 06:55:03;;;;;;;286.73;89.37;;;;;6.60;96794.00;;;;4984973;28;20422;-83
2024/03/14 06:57:53;;;;;;;277.77;82.87;;;;;6.80;96785.00;;;;4987390;28;20834;-83
2024/03/14 07:00:42;;;;;;;289.50;88.70;;;;;6.90;96790.00;;;;4985316;28;20548;-83
2024/03/14 07:03:31;;;;;;;283.13;85.20;;;;;6.90;96788.00;;;;4985318;28;20469;-84
2024/03/14 07:06:23;;;;;;;292.23;89.23;;;;;7.10;96793.00;;;;4995067;28;20492;-84
2024/03/14 07:09:17;;;;;;;300.10;91.03;;;;;7.40;96794.00;;;;4985212;28;20978;-84
2024/03/14 07:12:09;;;;;;;291.53;86.57;;;;;7.00;96792.00;;;;5000234;28;20443;-84
2024/03/14 07:14:59;;;;;;;289.10;84.00;;;;;6.60;96788.00;;;;5006261;28;20432;-84
2024/03/14 07:17:48;;;;;;;278.13;81.10;;;;;7.20;96797.00;;;;4997552;28;20437;-84
2024/03/14 07:20:39;;;;;;;300.40;93.10;;;;;7.80;96789.00;;;;4988507;28;20510;-84
2024/03/14 07:23:31;;;;;;;292.07;86.30;;;;;8.20;96814.00;;;;5009610;28;20807;-84
2024/03/14 07:26:22;;;;;;;299.77;90.37;;;;;8.20;96814.00;;;;4997890;28;20441;-84
2024/03/14 07:29:12;;;;;;;309.00;96.50;;;;;8.30;96808.00;;;;4985692;28;20205;-83
2024/03/14 07:32:03;;;;;;;300.20;90.93;;;;;8.50;96806.00;;;;4991505;28;20237;-84
2024/03/14 07:34:52;;;;;;;302.40;90.73;;;;;8.90;96815.00;;;;4992696;28;20211;-84
2024/03/14 07:37:42;;;;;;;307.30;89.17;;;;;9.30;96811.00;;;;4996458;28;20218;-84
2024/03/14 07:40:33;;;;;;;311.83;94.67;;;;;9.10;96804.00;;;;4984476;28;20256;-84
2024/03/14 07:43:22;;;;;;;320.83;99.17;;;;;9.40;96815.00;;;;4978895;28;20229;-84
2024/03/14 07:46:12;;;;;;;318.13;96.90;;;;;9.60;96817.00;;;;4980186;28;20459;-86
2024/03/14 07:49:01;;;;;;;314.43;95.00;;;;;10.00;96825.00;;;;4984788;28;20305;-85
2024/03/14 07:51:50;;;;;;;315.47;95.37;;;;;9.80;96817.00;;;;4999962;28;20214;-86
2024/03/14 07:54:39;;;;;;;315.30;95.63;;;;;10.80;96824.00;;;;4985664;28;20205;-86
2024/03/14 07:57:29;;;;;;;318.70;95.60;;;;;11.20;96833.00;;;;4985445;28;20482;-86
2024/03/14 08:00:21;;;;;;;334.53;103.67;;;;;11.40;96834.00;;;;4983610;28;20256;-86
2024/03/14 08:03:11;;;;;;;330.23;100.17;;;;;11.60;96836.00;;;;4993357;28;20213;-86
2024/03/14 08:06:02;;;;;;;334.70;101.43;;;;;11.90;96829.00;;;;4998206;28;20202;-86
2024/03/14 08:08:51;;;;;;;332.90;101.93;;;;;11.90;96832.00;;;;4987901;28;20201;-86
2024/03/14 08:11:41;;;;;;;329.37;105.20;;;;;11.80;96829.00;;;;4985154;28;20235;-86
2024/03/14 08:14:31;;;;;;;304.33;110.07;;;;;11.70;96842.00;;;;4984244;28;20218;-86
2024/03/14 08:17:20;;;;;;;313.43;119.77;;;;;12.20;96854.00;;;;4996944;28;20218;-85
2024/03/14 08:20:15;;;;;;;277.60;106.90;;;;;12.60;96852.00;;;;4997300;28;20206;-86
2024/03/14 08:23:09;;;;;;;263.63;114.27;;;;;12.60;96857.00;;;;4987672;28;20206;-86
2024/03/14 08:25:59;;;;;;;255.20;110.73;;;;;12.40;96855.00;;;;4996384;28;20217;-86
2024/03/14 08:28:48;;;;;;;263.53;116.77;;;;;12.10;96847.00;;;;4983537;28;20577;-86
2024/03/14 08:31:37;;;;;;;259.27;120.50;;;;;12.40;96859.00;;;;4985359;28;20490;-85
2024/03/14 08:34:28;;;;;;;268.23;130.23;;;;;12.60;96859.00;;;;4982852;28;20219;-86
2024/03/14 08:37:17;;;;;;;241.00;119.37;;;;;12.60;96857.00;;;;4996392;28;20230;-86
2024/03/14 08:40:09;;;;;;;241.37;116.60;;;;;12.90;96851.00;;;;5007199;28;20675;-85
2024/03/14 08:42:58;;;;;;;226.80;116.50;;;;;13.20;96854.00;;;;4987658;28;20223;-86
2024/03/14 08:45:50;;;;;;;220.80;113.93;;;;;13.20;96859.00;;;;4986501;28;20631;-86
2024/03/14 08:48:40;;;;;;;221.60;115.87;;;;;13.50;96856.00;;;;4988019;28;20646;-85
2024/03/14 08:51:29;;;;;;;232.43;121.57;;;;;13.40;96844.00;;;;4986336;28;20872;-86
2024/03/14 08:54:33;;;;;;;231.00;124.13;;;;;13.80;96850.00;;;;4994138;28;20263;-85
2024/03/14 08:57:25;;;;;;;223.33;126.60;;;;;13.40;96845.00;;;;5011682;28;20271;-86
2024/03/14 09:00:17;;;;;;;238.07;132.13;;;;;13.40;96853.00;;;;4990004;28;20233;-85
2024/03/14 09:03:07;;;;;;;214.77;123.07;;;;;13.40;96854.00;;;;4999618;28;20648;-85
2024/03/14 09:05:56;;;;;;;210.90;121.20;;;;;14.10;96852.00;;;;5004744;28;20198;-86
2024/03/14 09:08:46;;;;;;;218.03;125.33;;;;;14.40;96852.00;;;;4992661;28;20254;-86
2024/03/14 09:11:35;;;;;;;224.17;129.37;;;;;14.70;96858.00;;;;4991195;28;20259;-87
2024/03/14 09:14:25;;;;;;;238.63;139.00;;;;;14.70;96851.00;;;;4991099;28;20572;-87
2024/03/14 09:17:15;;;;;;;235.80;140.80;;;;;14.60;96855.00;;;;4988828;28;20577;-86
2024/03/14 09:20:06;;;;;;;234.30;139.53;;;;;14.50;96861.00;;;;5000892;28;20600;-85
2024/03/14 09:22:55;;;;;;;253.67;137.47;;;;;13.30;96837.00;;;;4997336;28;20205;-84
2024/03/14 09:25:44;;;;;;;267.00;143.07;;;;;14.30;96851.00;;;;4997632;28;20212;-85
2024/03/14 09:28:34;;;;;;;247.33;137.70;;;;;15.10;96854.00;;;;5002324;28;20201;-86
2024/03/14 09:31:23;;;;;;;244.33;140.50;;;;;15.50;96862.00;;;;4992222;28;20206;-86
2024/03/14 09:34:13;;;;;;;242.80;142.70;;;;;15.60;96854.00;;;;4995773;28;20210;-86
2024/03/14 09:37:02;;;;;;;261.10;143.70;;;;;15.40;96860.00;;;;4994741;28;20360;-86
2024/03/14 09:39:51;;;;;;;255.37;145.00;;;;;15.30;96854.00;;;;4994293;28;20198;-85
2024/03/14 09:42:41;;;;;;;253.10;145.07;;;;;16.00;96860.00;;;;5009526;28;20200;-86
2024/03/14 09:45:31;;;;;;;257.50;153.23;;;;;16.10;96858.00;;;;5005709;28;20213;-86
2024/03/14 09:48:20;;;;;;;274.73;159.60;;;;;16.10;96858.00;;;;4990811;28;20248;-86
2024/03/14 09:51:09;;;;;;;282.47;153.30;;;;;16.10;96850.00;;;;5000024;28;20259;-86
2024/03/14 09:53:58;;;;;;;302.37;155.50;;;;;16.40;96852.00;;;;5023352;28;20201;-86
2024/03/14 09:56:48;;;;;;;294.37;157.97;;;;;16.80;96858.00;;;;5011214;28;20232;-86
2024/03/14 09:59:38;;;;;;;296.83;164.10;;;;;17.20;96842.00;;;;5000555;28;20205;-86
2024/03/14 10:02:27;;;;;;;318.63;177.77;;;;;17.40;96840.00;;;;5003935;28;20209;-87
2024/03/14 10:05:16;;;;;;;324.40;184.53;;;;;16.10;96826.00;;;;5000918;28;20199;-86
2024/03/14 10:08:06;;;;;;;305.00;172.67;;;;;15.40;96831.00;;;;4989498;28;20225;-86
2024/03/14 10:10:55;;;;;;;294.30;169.43;;;;;16.00;96829.00;;;;5001112;28;20294;-86
2024/03/14 10:13:47;;;;;;;300.43;170.47;;;;;17.20;96839.00;;;;4990897;28;20205;-86
2024/03/14 10:16:37;;;;;;;304.20;169.57;;;;;17.10;96828.00;;;;5004186;28;20218;-85
2024/03/14 10:19:30;;;;;;;310.00;182.23;;;;;15.50;96823.00;;;;5000356;28;20232;-86
2024/03/14 10:22:19;;;;;;;289.73;171.90;;;;;17.50;96837.00;;;;5016434;28;20204;-86
2024/03/14 10:25:13;;;;;;;291.70;171.10;;;;;17.90;96822.00;;;;4996663;28;20206;-86
2024/03/14 10:28:05;;;;;;;300.07;178.13;;;;;18.30;96825.00;;;;4992580;28;20803;-86
2024/03/14 10:30:57;;;;;;;308.70;182.33;;;;;17.60;96823.00;;;;5004230;28;20212;-86
2024/03/14 10:33:46;;;;;;;309.40;180.10;;;;;18.20;96814.00;;;;4991629;28;20197;-86
2024/03/14 10:36:39;;;;;;;317.63;187.73;;;;;18.00;96801.00;;;;4986016;28;20232;-86
2024/03/14 10:39:28;;;;;;;329.50;196.40;;;;;18.20;96802.00;;;;5001726;28;20635;-86
2024/03/14 10:42:17;;;;;;;323.73;195.33;;;;;19.10;96803.00;;;;4994653;28;20547;-86
2024/03/14 10:45:07;;;;;;;313.50;184.77;;;;;18.70;96792.00;;;;4986439;28;20688;-86
2024/03/14 10:47:56;;;;;;;351.40;198.23;;;;;19.50;96805.00;;;;5002697;28;20213;-86
2024/03/14 10:50:47;;;;;;;362.23;206.73;;;;;20.10;96790.00;;;;5000674;28;20694;-86
2024/03/14 10:53:36;;;;;;;368.20;220.73;;;;;20.20;96790.00;;;;4974218;28;20291;-86
2024/03/14 10:56:25;;;;;;;370.00;231.70;;;;;21.00;96784.00;;;;4985083;28;20592;-86
2024/03/14 10:59:16;;;;;;;378.23;252.70;;;;;21.00;96818.00;;;;5011392;28;20256;-87
2024/03/14 11:02:05;;;;;;;373.20;250.67;;;;;20.00;96821.00;;;;4994407;28;20205;-86
2024/03/14 11:04:55;;;;;;;403.53;275.30;;;;;18.80;96820.00;;;;4998082;28;20587;-85
2024/03/14 11:07:45;;;;;;;376.70;257.63;;;;;18.80;96808.00;;;;4983932;28;20225;-86
2024/03/14 11:10:35;;;;;;;364.30;258.37;;;;;17.80;96788.00;;;;5000091;28;20559;-86
2024/03/14 11:13:26;;;;;;;355.17;247.90;;;;;18.90;96795.00;;;;4998817;28;20213;-87
2024/03/14 11:16:15;;;;;;;339.80;246.57;;;;;18.70;96809.00;;;;4989150;28;20226;-86
2024/03/14 11:19:05;;;;;;;326.33;238.87;;;;;18.10;96805.00;;;;4989494;28;20240;-87
2024/03/14 11:21:55;;;;;;;337.40;243.33;;;;;18.30;96811.00;;;;4994503;28;20201;-86
2024/03/14 11:24:44;;;;;;;322.10;224.13;;;;;18.00;96800.00;;;;5006985;28;20209;-86
2024/03/14 11:27:34;;;;;;;315.60;219.50;;;;;18.20;96796.00;;;;4994794;28;20287;-86
2024/03/14 11:30:24;;;;;;;321.33;225.30;;;;;16.80;96804.00;;;;4998527;28;20690;-86
2024/03/14 11:33:13;;;;;;;307.40;208.23;;;;;16.30;96795.00;;;;5007649;28;20205;-86
2024/03/14 11:36:05;;;;;;;315.77;204.90;;;;;16.70;96800.00;;;;4983105;28;20279;-87
2024/03/14 11:38:54;;;;;;;319.90;195.73;;;;;17.10;96790.00;;;;4974942;28;20585;-86
2024/03/14 11:41:43;;;;;;;300.33;190.00;;;;;17.60;96798.00;;;;5010742;28;20201;-86
2024/03/14 11:44:33;;;;;;;287.63;189.40;;;;;18.00;96808.00;;;;4994026;28;20206;-86
2024/03/14 11:47:43;;;;;;;303.03;194.07;;;;;17.70;96795.00;;;;5010054;28;20232;-86
2024/03/14 11:50:35;;;;;;;286.93;189.43;;;;;17.30;96787.00;;;;5007665;28;20773;-86
2024/03/14 11:53:25;;;;;;;291.00;197.07;;;;;15.90;96788.00;;;;4991069;28;20214;-85
2024/03/14 11:56:14;;;;;;;273.53;185.90;;;;;16.00;96777.00;;;;5006802;28;20295;-86
2024/03/14 11:59:04;;;;;;;261.57;179.27;;;;;15.90;96770.00;;;;4995305;28;20209;-85
2024/03/14 12:01:54;;;;;;;261.07;180.30;;;;;16.20;96769.00;;;;4995961;28;20197;-85
2024/03/14 12:04:44;;;;;;;285.20;191.33;;;;;17.20;96762.00;;;;4992770;28;20771;-86
2024/03/14 12:07:34;;;;;;;270.43;180.63;;;;;17.10;96766.00;;;;4984758;28;20612;-87
2024/03/14 12:10:23;;;;;;;280.13;186.27;;;;;17.30;96766.00;;;;4985198;28;20263;-86
2024/03/14 12:13:14;;;;;;;282.07;179.33;;;;;17.10;96767.00;;;;4998058;28;20246;-87
2024/03/14 12:16:03;;;;;;;270.87;176.90;;;;;17.50;96757.00;;;;5013382;28;20279;-86
2024/03/14 12:18:53;;;;;;;280.07;182.53;;;;;17.60;96748.00;;;;4994211;28;20217;-86
2024/03/14 12:21:43;;;;;;;285.43;185.10;;;;;17.60;96741.00;;;;4981203;28;20270;-87
2024/03/14 12:24:32;;;;;;;294.43;187.40;;;;;19.60;96686.00;;;;4993434;28;20205;-86
2024/03/14 12:27:22;;;;;;;313.40;207.23;;;;;21.10;96691.00;;;;5002792;28;20222;-87
2024/03/14 12:30:15;;;;;;;324.10;217.67;;;;;22.20;96693.00;;;;5000071;28;20197;-86
2024/03/14 12:35:33;;;;;;;415.23;304.37;;;;;22.80;96690.00;;;;5014982;28;20667;-70
2024/03/14 12:38:22;;;;;;;426.07;339.63;;;;;23.70;96723.00;;;;5004072;28;20671;-70
2024/03/14 12:41:11;;;;;;;411.87;354.57;;;;;22.90;96728.00;;;;4991562;28;20209;-70
2024/03/14 12:44:00;;;;;;;429.10;381.80;;;;;22.40;96717.00;;;;4976199;28;20340;-70
2024/03/14 12:46:50;;;;;;;431.90;384.53;;;;;21.30;96727.00;;;;4958421;28;20202;-69
2024/03/14 12:49:39;;;;;;;427.73;379.57;;;;;20.50;96713.00;;;;4986065;28;20210;-70
2024/03/14 12:52:28;;;;;;;433.83;372.67;;;;;19.30;96716.00;;;;4971815;28;20764;-70
2024/03/14 12:55:18;;;;;;;434.60;367.87;;;;;18.90;96723.00;;;;4979206;28;20279;-69
2024/03/14 12:58:20;;;;;;;417.13;326.73;;;;;19.30;96721.00;;;;4987534;28;20212;-68
2024/03/14 13:01:09;;;;;;;400.60;310.10;;;;;18.20;96709.00;;;;4990155;28;20221;-69
2024/03/14 13:04:00;;;;;;;390.03;297.43;;;;;18.90;96706.00;;;;4992544;28;20249;-68
2024/03/14 13:06:49;;;;;;;395.30;287.17;;;;;19.40;96719.00;;;;4977608;28;20206;-69
2024/03/14 13:09:39;;;;;;;383.00;277.50;;;;;19.80;96714.00;;;;4975146;28;20745;-69
2024/03/14 13:12:29;;;;;;;390.40;274.97;;;;;20.10;96711.00;;;;4985224;28;20255;-70
2024/03/14 13:15:23;;;;;;;384.07;268.33;;;;;18.60;96713.00;;;;4974282;28;20288;-70
2024/03/14 13:18:15;;;;;;;352.13;252.50;;;;;18.80;96716.00;;;;4988149;28;20203;-69
2024/03/14 13:21:04;;;;;;;349.10;249.70;;;;;19.70;96711.00;;;;4986961;28;20220;-69
2024/03/14 13:23:54;;;;;;;347.37;247.87;;;;;19.50;96719.00;;;;4976806;28;20598;-70
2024/03/14 13:26:46;;;;;;;344.73;242.67;;;;;19.70;96711.00;;;;4992697;28;20206;-70
2024/03/14 13:29:36;;;;;;;383.37;259.37;;;;;21.70;96653.00;;;;4980514;28;20201;-70
2024/03/14 13:32:28;;;;;;;392.70;273.30;;;;;20.70;96697.00;;;;4982274;28;20291;-70
2024/03/14 13:35:21;;;;;;;411.83;294.33;;;;;20.80;96694.00;;;;4975810;28;20259;-70
2024/03/14 13:38:12;;;;;;;410.10;313.13;;;;;22.40;96643.00;;;;4969872;28;20291;-71
2024/03/14 13:41:01;;;;;;;420.50;341.63;;;;;24.30;96651.00;;;;4984114;28;20216;-70
2024/03/14 13:43:51;;;;;;;427.55;376.70;;;;;25.50;96666.00;;;;4981918;28;20211;-70
2024/03/14 13:46:41;;;;;;;468.43;419.53;;;;;25.30;96664.00;;;;4987798;28;20203;-70